Time;durP1;ratioP1;P1;durP2;ratioP2;P2;SDS_P1;SDS_P2;PMS_P1;PMS_P2;Temp;Humidity;BMP_temperature;BMP_pressure;BME280_temperature;BME280_humidity;BME280_pressure;Samples;Min_cycle;Max_cycle;Signal;HPM_P1;HPM_P2
2022/09/23 00:01:17;;;;;;;;;;;;;;;-142.75;100.00;77436.50;5014703;28;20326;-69
2022/09/23 00:03:47;;;;;;;;;;;;;;;-142.75;100.00;77428.63;5014429;28;20319;-69
2022/09/23 00:06:16;;;;;;;;;;;;;;;-142.75;100.00;77424.69;5014471;28;19918;-69
2022/09/23 00:08:42;;;;;;;;;;;;;;;-142.75;100.00;77426.66;5014295;28;20016;-69
2022/09/23 00:11:12;;;;;;;;;;;;;;;-142.75;100.00;77410.91;5014508;28;19959;-70
2022/09/23 00:13:38;;;;;;;;;;;;;;;-142.75;100.00;77405.00;5014510;28;19959;-69
2022/09/23 00:16:04;;;;;;;;;;;;;;;-142.75;100.00;77405.00;5014151;28;19917;-69
2022/09/23 00:18:29;;;;;;;;;;;;;;;-142.75;100.00;77408.94;5014075;28;19920;-69
2022/09/23 00:20:54;;;;;;;;;;;;;;;-142.75;100.00;77410.91;5042887;22;20250;-70
2022/09/23 00:23:20;;;;;;;;;;;;;;;-142.75;100.00;77416.81;5052995;28;20321;-70
2022/09/23 00:25:45;;;;;;;;;;;;;;;-142.75;100.00;77416.81;5052017;28;19923;-70
2022/09/23 00:28:10;;;;;;;;;;;;;;;-142.75;100.00;77428.63;5028309;28;19962;-70
2022/09/23 00:30:35;;;;;;;;;;;;;;;-142.75;100.00;77444.38;5036182;28;20004;-70
2022/09/23 00:33:00;;;;;;;;;;;;;;;-142.75;100.00;77436.50;5036225;28;20007;-70
2022/09/23 00:35:26;;;;;;;;;;;;;;;-142.75;100.00;77444.38;5054085;28;19979;-70
2022/09/23 00:37:51;;;;;;;;;;;;;;;-142.75;100.00;77438.47;5036180;28;19913;-71
2022/09/23 00:40:16;;;;;;;;;;;;;;;-142.75;100.00;77446.34;5054205;28;19913;-71
2022/09/23 00:42:46;;;;;;;;;;;;;;;-142.75;100.00;77452.25;5036409;28;19978;-70
2022/09/23 00:45:11;;;;;;;;;;;;;;;-142.75;100.00;77456.22;5048188;28;19913;-70
2022/09/23 00:47:39;;;;;;;;;;;;;;;-142.75;100.00;77448.34;5053276;28;19920;-70
2022/09/23 00:50:09;;;;;;;;;;;;;;;-142.75;100.00;77456.22;5053510;28;19999;-70
2022/09/23 00:52:35;;;;;;;;;;;;;;;-142.75;100.00;77458.16;5053379;28;20424;-70
2022/09/23 00:55:02;;;;;;;;;;;;;;;-142.75;100.00;77462.13;5053278;28;20336;-70
2022/09/23 00:57:27;;;;;;;;;;;;;;;-142.75;100.00;77462.13;5035294;28;19913;-70
2022/09/23 00:59:53;;;;;;;;;;;;;;;-142.75;100.00;77462.13;5053411;28;19961;-70
2022/09/23 01:02:19;;;;;;;;;;;;;;;-142.75;100.00;77460.13;5053197;28;20271;-70
2022/09/23 01:04:46;;;;;;;;;;;;;;;-142.75;100.00;77464.09;5053563;28;19999;-71
2022/09/23 01:07:12;;;;;;;;;;;;;;;-142.75;100.00;77466.03;5053062;28;19913;-70
2022/09/23 01:09:37;;;;;;;;;;;;;;;-142.75;100.00;77483.78;5053103;28;19920;-70
2022/09/23 01:12:02;;;;;;;;;;;;;;;-142.75;100.00;77487.72;5053129;28;20329;-70
2022/09/23 01:14:43;;;;;;;;;;;;;;;-142.75;100.00;77483.78;5053083;28;19912;-70
2022/09/23 01:17:11;;;;;;;;;;;;;;;-142.75;100.00;77493.63;5052617;28;19917;-70
2022/09/23 01:19:48;;;;;;;;;;;;;;;-142.75;100.00;77491.66;5053044;28;20012;-70
2022/09/23 01:22:27;;;;;;;;;;;;;;;-142.75;100.00;77491.66;5052718;28;19932;-70
2022/09/23 01:24:58;;;;;;;;;;;;;;;-142.75;100.00;77495.59;5052954;28;20003;-70
2022/09/23 01:27:26;;;;;;;;;;;;;;;-142.75;100.00;77495.59;5051972;28;19912;-70
2022/09/23 01:30:05;;;;;;;;;;;;;;;-142.75;100.00;77491.66;5034915;28;19920;-70
2022/09/23 01:32:36;;;;;;;;;;;;;;;-142.75;100.00;77489.69;5052746;28;19958;-70
2022/09/23 01:35:15;;;;;;;;;;;;;;;-142.75;100.00;77483.78;5052735;28;19947;-70
2022/09/23 01:37:41;;;;;;;;;;;;;;;-142.75;100.00;77485.75;5034420;28;19913;-70
2022/09/23 01:40:13;;;;;;;;;;;;;;;-142.75;100.00;77479.84;5052691;28;19966;-70
2022/09/23 01:42:43;;;;;;;;;;;;;;;-142.75;100.00;77487.72;5052521;28;19913;-70
2022/09/23 01:45:13;;;;;;;;;;;;;;;-142.75;100.00;77485.75;5052569;28;19913;-70
2022/09/23 01:47:43;;;;;;;;;;;;;;;-142.75;100.00;77489.69;5052255;28;20054;-70
2022/09/23 01:53:06;;;;;;;;;;;;;;;-142.75;100.00;77497.56;5052758;28;19965;-70
2022/09/23 01:55:35;;;;;;;;;;;;;;;-142.75;100.00;77499.53;5052446;28;19917;-70
2022/09/23 01:58:04;;;;;;;;;;;;;;;-142.75;100.00;77503.47;5052154;28;19913;-70
2022/09/23 02:00:33;;;;;;;;;;;;;;;-142.75;100.00;77499.53;5052322;28;19999;-70
2022/09/23 02:03:11;;;;;;;;;;;;;;;-142.75;100.00;77499.53;5052204;28;19917;-70
2022/09/23 02:05:39;;;;;;;;;;;;;;;-142.75;100.00;77507.41;5052392;28;20031;-70
2022/09/23 02:08:12;;;;;;;;;;;;;;;-142.75;100.00;77505.44;5052008;28;20347;-70
2022/09/23 02:10:45;;;;;;;;;;;;;;;-142.75;100.00;77511.34;5052253;28;19913;-70
2022/09/23 02:13:23;;;;;;;;;;;;;;;-142.75;100.00;77519.22;5052161;28;20294;-70
2022/09/23 02:15:55;;;;;;;;;;;;;;;-142.75;100.00;77523.16;5052212;28;19990;-70
2022/09/23 02:18:23;;;;;;;;;;;;;;;-142.75;100.00;77525.13;5052007;28;20374;-70
2022/09/23 02:20:50;;;;;;;;;;;;;;;-142.75;100.00;77527.09;5052040;28;20426;-70
2022/09/23 02:23:20;;;;;;;;;;;;;;;-142.75;100.00;77527.09;5052108;28;19954;-70
2022/09/23 02:26:04;;;;;;;;;;;;;;;-142.75;100.00;77525.13;5052093;28;19913;-70
2022/09/23 02:28:43;;;;;;;;;;;;;;;-142.75;100.00;77523.16;5051887;28;20383;-70
2022/09/23 02:31:23;;;;;;;;;;;;;;;-142.75;100.00;77529.06;5052332;28;20309;-70
2022/09/23 02:33:54;;;;;;;;;;;;;;;-142.75;100.00;77533.00;5052410;28;19924;-70
2022/09/23 02:36:38;;;;;;;;;;;;;;;-142.75;100.00;77519.22;5051945;28;19947;-70
2022/09/23 02:39:06;;;;;;;;;;;;;;;-142.75;100.00;77507.41;5052919;28;19978;-69
2022/09/23 02:41:54;;;;;;;;;;;;;;;-142.75;100.00;77499.53;5056084;28;19966;-70
2022/09/23 02:44:22;;;;;;;;;;;;;;;-142.75;100.00;77483.78;5047522;28;20004;-70
2022/09/23 02:46:51;;;;;;;;;;;;;;;-142.75;100.00;77471.97;5055760;28;20003;-70
2022/09/23 02:49:16;;;;;;;;;;;;;;;-142.75;100.00;77468.03;5055980;28;19919;-70
2022/09/23 02:51:42;;;;;;;;;;;;;;;-142.75;100.00;77458.16;5055821;28;19995;-70
2022/09/23 02:54:09;;;;;;;;;;;;;;;-142.75;100.00;77444.38;5055840;28;19917;-70
2022/09/23 02:56:36;;;;;;;;;;;;;;;-142.75;100.00;77432.56;5055586;28;19975;-70
2022/09/23 02:59:01;;;;;;;;;;;;;;;-142.75;100.00;77420.75;5055796;28;20457;-70
2022/09/23 03:01:48;;;;;;;;;;;;;;;-142.75;100.00;77408.94;5055680;28;19942;-70
2022/09/23 03:04:30;;;;;;;;;;;;;;;-142.75;100.00;77405.00;5055958;28;19913;-69
2022/09/23 03:07:01;;;;;;;;;;;;;;;-142.75;100.00;77399.09;5055330;28;19920;-70
2022/09/23 03:09:52;;;;;;;;;;;;;;;-142.75;100.00;77397.13;5055556;28;19956;-70
2022/09/23 03:12:24;;;;;;;;;;;;;;;-142.75;100.00;77393.19;5037721;28;20007;-70
2022/09/23 03:14:57;;;;;;;;;;;;;;;-142.75;100.00;77385.31;5055440;28;20371;-70
2022/09/23 03:17:25;;;;;;;;;;;;;;;-142.75;100.00;77393.19;5055197;28;19942;-70
2022/09/23 03:20:08;;;;;;;;;;;;;;;-142.75;100.00;77391.22;5055278;28;19920;-70
2022/09/23 03:22:39;;;;;;;;;;;;;;;-142.75;100.00;77397.13;5055116;28;19916;-70
2022/09/23 03:25:10;;;;;;;;;;;;;;;-142.75;100.00;77397.13;5055439;28;19912;-70
2022/09/23 03:27:37;;;;;;;;;;;;;;;-142.75;100.00;77393.19;5054965;28;20383;-70
2022/09/23 03:30:03;;;;;;;;;;;;;;;-142.75;100.00;77397.13;5055213;28;20054;-70
2022/09/23 03:32:30;;;;;;;;;;;;;;;-142.75;100.00;77393.19;5055093;28;19912;-70
2022/09/23 03:34:57;;;;;;;;;;;;;;;-142.75;100.00;77395.16;5055128;28;19916;-70
2022/09/23 03:37:30;;;;;;;;;;;;;;;-142.75;100.00;77385.31;5037015;28;19932;-70
2022/09/23 03:39:55;;;;;;;;;;;;;;;-142.75;100.00;77377.44;5055225;28;19913;-70
2022/09/23 03:42:23;;;;;;;;;;;;;;;-142.75;100.00;77377.44;5070364;28;19917;-70
2022/09/23 03:44:52;;;;;;;;;;;;;;;-142.75;100.00;77377.44;5054824;28;19921;-70
2022/09/23 03:47:18;;;;;;;;;;;;;;;-142.75;100.00;77363.66;5054587;28;20297;-70
2022/09/23 03:49:47;;;;;;;;;;;;;;;-142.75;100.00;77355.78;5036448;28;19920;-70
2022/09/23 03:52:12;;;;;;;;;;;;;;;-142.75;100.00;77345.94;5054612;28;19913;-70
2022/09/23 03:54:37;;;;;;;;;;;;;;;-142.75;100.00;77353.81;5054671;28;19919;-70
2022/09/23 03:57:02;;;;;;;;;;;;;;;-142.75;100.00;77342.00;5069881;28;19967;-69
2022/09/23 03:59:29;;;;;;;;;;;;;;;-142.75;100.00;77322.31;5054636;28;20271;-70
2022/09/23 04:01:54;;;;;;;;;;;;;;;-142.75;100.00;77312.47;5054558;28;19919;-70
2022/09/23 04:04:20;;;;;;;;;;;;;;;-142.75;100.00;77320.34;5030639;28;19995;-70
2022/09/23 04:06:45;;;;;;;;;;;;;;;-142.75;100.00;77314.44;5048640;28;19954;-71
2022/09/23 04:09:11;;;;;;;;;;;;;;;-142.75;100.00;77310.50;5036458;28;19912;-70
2022/09/23 04:11:36;;;;;;;;;;;;;;;-142.75;100.00;77306.56;5054397;28;20271;-70
2022/09/23 04:14:01;;;;;;;;;;;;;;;-142.75;100.00;77296.72;5054390;28;20156;-70
2022/09/23 04:16:27;;;;;;;;;;;;;;;-142.75;100.00;77290.81;5054217;28;19944;-70
2022/09/23 04:18:52;;;;;;;;;;;;;;;-142.75;100.00;77286.88;5054114;28;20309;-70
2022/09/23 04:21:17;;;;;;;;;;;;;;;-142.75;100.00;77282.94;5053982;28;19917;-70
2022/09/23 04:23:42;;;;;;;;;;;;;;;-142.75;100.00;77284.91;5054045;28;19999;-70
2022/09/23 04:26:08;;;;;;;;;;;;;;;-142.75;100.00;77279.00;5054126;28;19912;-70
2022/09/23 04:28:33;;;;;;;;;;;;;;;-142.75;100.00;77275.06;5053835;28;19913;-70
2022/09/23 04:30:58;;;;;;;;;;;;;;;-142.75;100.00;77267.19;5053945;28;19995;-71
2022/09/23 04:33:24;;;;;;;;;;;;;;;-142.75;100.00;77269.16;5053061;28;20550;-70
2022/09/23 04:35:50;;;;;;;;;;;;;;;-142.75;100.00;77265.22;5052122;28;20374;-70
2022/09/23 04:38:16;;;;;;;;;;;;;;;-142.75;100.00;77263.25;5053421;28;19913;-70
2022/09/23 04:40:41;;;;;;;;;;;;;;;-142.75;100.00;77263.25;5053666;28;19912;-71
2022/09/23 04:43:06;;;;;;;;;;;;;;;-142.75;100.00;77259.31;5035927;28;19913;-70
2022/09/23 04:45:31;;;;;;;;;;;;;;;-142.75;100.00;77253.41;5053699;28;19959;-70
2022/09/23 04:47:57;;;;;;;;;;;;;;;-142.75;100.00;77249.47;5053486;28;19928;-71
2022/09/23 04:50:22;;;;;;;;;;;;;;;-142.75;100.00;77259.31;5053731;28;20584;-70
2022/09/23 04:52:48;;;;;;;;;;;;;;;-142.75;100.00;77257.34;5053640;28;19912;-70
2022/09/23 04:55:13;;;;;;;;;;;;;;;-142.75;100.00;77265.22;5053630;28;19924;-71
2022/09/23 04:57:38;;;;;;;;;;;;;;;-142.75;100.00;77253.41;5053190;28;19913;-70
2022/09/23 05:00:03;;;;;;;;;;;;;;;-142.75;100.00;77261.28;5053399;28;19913;-70
2022/09/23 05:02:29;;;;;;;;;;;;;;;-142.75;100.00;77255.38;5052458;28;19912;-69
2022/09/23 05:04:55;;;;;;;;;;;;;;;-142.75;100.00;77245.53;5053354;28;19916;-69
2022/09/23 05:07:20;;;;;;;;;;;;;;;-142.75;100.00;77239.63;5053093;28;19913;-70
2022/09/23 05:09:45;;;;;;;;;;;;;;;-142.75;100.00;77239.63;5053174;28;19948;-70
2022/09/23 05:12:10;;;;;;;;;;;;;;;-142.75;100.00;77243.56;5053422;28;20003;-70
2022/09/23 05:14:37;;;;;;;;;;;;;;;-142.75;100.00;77247.50;5053197;28;19917;-70
2022/09/23 05:17:03;;;;;;;;;;;;;;;-142.75;100.00;77235.69;5052958;28;19924;-69
2022/09/23 05:19:28;;;;;;;;;;;;;;;-142.75;100.00;77231.75;5053058;28;19913;-70
2022/09/23 05:21:53;;;;;;;;;;;;;;;-142.75;100.00;77231.75;5052678;28;19917;-70
2022/09/23 05:24:18;;;;;;;;;;;;;;;-142.75;100.00;77219.94;5053025;28;19935;-70
2022/09/23 05:26:43;;;;;;;;;;;;;;;-142.75;100.00;77219.94;5034696;28;20290;-69
2022/09/23 05:29:09;;;;;;;;;;;;;;;-142.75;100.00;77229.78;5052779;28;19920;-70
2022/09/23 05:31:35;;;;;;;;;;;;;;;-142.75;100.00;77225.84;5052673;28;19913;-70
2022/09/23 05:34:02;;;;;;;;;;;;;;;-142.75;100.00;77237.66;5052807;28;20006;-70
2022/09/23 05:36:28;;;;;;;;;;;;;;;-142.75;100.00;77237.66;5052458;28;20412;-70
2022/09/23 05:38:55;;;;;;;;;;;;;;;-142.75;100.00;77249.47;5052594;28;19913;-70
2022/09/23 05:41:21;;;;;;;;;;;;;;;-142.75;100.00;77247.50;5052586;28;19913;-70
2022/09/23 05:43:47;;;;;;;;;;;;;;;-142.75;100.00;77249.47;5052641;28;19936;-69
2022/09/23 05:46:13;;;;;;;;;;;;;;;-142.75;100.00;77263.25;5052671;28;20368;-70
2022/09/23 05:48:39;;;;;;;;;;;;;;;-142.75;100.00;77267.19;5052421;28;20351;-69
2022/09/23 05:51:07;;;;;;;;;;;;;;;-142.75;100.00;77265.22;5052538;28;19913;-70
2022/09/23 05:53:33;;;;;;;;;;;;;;;-142.75;100.00;77265.22;5052470;28;20344;-70
2022/09/23 05:55:58;;;;;;;;;;;;;;;-142.75;100.00;77265.22;5052421;28;19917;-69
2022/09/23 05:58:23;;;;;;;;;;;;;;;-142.75;100.00;77255.38;5052045;28;19917;-70
2022/09/23 06:00:49;;;;;;;;;;;;;;;-142.75;100.00;77249.47;5034714;28;19960;-70
2022/09/23 06:03:19;;;;;;;;;;;;;;;-142.75;100.00;77247.50;5052232;28;19958;-69
2022/09/23 06:05:45;;;;;;;;;;;;;;;-142.75;100.00;77247.50;5052324;28;19936;-70
2022/09/23 06:08:11;;;;;;;;;;;;;;;-142.75;100.00;77243.56;5052153;28;20363;-70
2022/09/23 06:10:37;;;;;;;;;;;;;;;-142.75;100.00;77233.72;5052248;28;19913;-71
2022/09/23 06:13:02;;;;;;;;;;;;;;;-142.75;100.00;77233.72;5051992;28;19963;-70
2022/09/23 06:15:27;;;;;;;;;;;;;;;-142.75;100.00;77233.72;5052171;28;20379;-70
2022/09/23 06:17:52;;;;;;;;;;;;;;;-142.75;100.00;77233.72;5051897;28;19923;-69
2022/09/23 06:20:17;;;;;;;;;;;;;;;-142.75;100.00;77235.69;5034293;28;20397;-70
2022/09/23 06:22:43;;;;;;;;;;;;;;;-142.75;100.00;77223.88;5061055;22;20294;-66
2022/09/23 06:25:08;;;;;;;;;;;;;;;-142.75;100.00;77219.94;5029199;28;20398;-68
2022/09/23 06:27:33;;;;;;;;;;;;;;;-142.75;100.00;77212.06;5046982;28;19913;-69
2022/09/23 06:29:58;;;;;;;;;;;;;;;-142.75;100.00;77204.19;5030742;28;19920;-69
2022/09/23 06:32:24;;;;;;;;;;;;;;;-142.75;100.00;77202.22;5031016;28;19913;-69
2022/09/23 06:34:49;;;;;;;;;;;;;;;-142.75;100.00;77208.13;5032056;28;19917;-69
2022/09/23 06:37:14;;;;;;;;;;;;;;;-142.75;100.00;77200.25;5031098;28;20137;-69
2022/09/23 06:39:40;;;;;;;;;;;;;;;-142.75;100.00;77188.44;5025987;28;20015;-69
2022/09/23 06:42:05;;;;;;;;;;;;;;;-142.75;100.00;77188.44;5031736;28;20429;-69
2022/09/23 06:44:30;;;;;;;;;;;;;;;-142.75;100.00;77180.56;5031926;28;19913;-69
2022/09/23 06:46:55;;;;;;;;;;;;;;;-142.75;100.00;77168.75;5031698;28;20294;-69
2022/09/23 06:49:21;;;;;;;;;;;;;;;-142.75;100.00;77162.84;5030752;28;19916;-69
2022/09/23 06:51:46;;;;;;;;;;;;;;;-142.75;100.00;77168.75;5031877;28;19913;-69
2022/09/23 06:54:12;;;;;;;;;;;;;;;-142.75;100.00;77156.94;5031923;28;19956;-69
2022/09/23 06:56:37;;;;;;;;;;;;;;;-142.75;100.00;77162.84;5031527;28;19971;-68
2022/09/23 06:59:02;;;;;;;;;;;;;;;-142.75;100.00;77156.94;5031899;28;19913;-67
2022/09/23 07:01:28;;;;;;;;;;;;;;;-142.75;100.00;77154.97;5031695;28;19920;-71
2022/09/23 07:03:53;;;;;;;;;;;;;;;-142.75;100.00;77160.88;5031816;28;19913;-70
2022/09/23 07:06:18;;;;;;;;;;;;;;;-142.75;100.00;77153.00;5030693;28;20341;-69
2022/09/23 07:08:45;;;;;;;;;;;;;;;-142.75;100.00;77149.06;5025737;28;19925;-69
2022/09/23 07:11:12;;;;;;;;;;;;;;;-142.75;100.00;77129.38;5019230;28;19925;-69
2022/09/23 07:13:38;;;;;;;;;;;;;;;-142.75;100.00;77105.75;5019223;28;20013;-69
2022/09/23 07:16:04;;;;;;;;;;;;;;;-142.75;100.00;77080.16;5027911;28;20338;-69
2022/09/23 07:18:32;;;;;;;;;;;;;;;-142.75;100.00;77058.50;5035330;28;19913;-70
2022/09/23 07:21:03;;;;;;;;;;;;;;;-142.75;100.00;77044.72;5027730;28;19959;-68
2022/09/23 07:23:28;;;;;;;;;;;;;;;-142.75;100.00;77021.09;5031248;28;19921;-70
2022/09/23 07:25:57;;;;;;;;;;;;;;;-142.75;100.00;77003.38;5029122;28;20294;-70
2022/09/23 07:28:22;;;;;;;;;;;;;;;-142.75;100.00;77007.31;5033959;28;20375;-70
2022/09/23 07:30:48;;;;;;;;;;;;;;;-142.75;100.00;76991.56;5033408;28;19913;-70
2022/09/23 07:33:13;;;;;;;;;;;;;;;-142.75;100.00;76983.69;5023450;28;19924;-69
2022/09/23 07:35:39;;;;;;;;;;;;;;;-142.75;100.00;76967.94;5019029;28;20382;-70
2022/09/23 07:38:05;;;;;;;;;;;;;;;-142.75;100.00;76960.06;5034160;28;19913;-69
2022/09/23 07:40:30;;;;;;;;;;;;;;;-142.75;100.00;76971.88;5034405;28;19913;-70
2022/09/23 07:42:55;;;;;;;;;;;;;;;-142.75;100.00;76954.16;5034175;28;19943;-69
2022/09/23 07:45:22;;;;;;;;;;;;;;;-142.75;100.00;76950.22;5034203;28;20389;-70
2022/09/23 07:47:48;;;;;;;;;;;;;;;-142.75;100.00;76940.38;5031548;28;19914;-69
2022/09/23 07:50:13;;;;;;;;;;;;;;;-142.75;100.00;76936.44;5030382;28;19956;-70
2022/09/23 07:52:39;;;;;;;;;;;;;;;-142.75;100.00;76916.75;5032952;28;19983;-69
2022/09/23 07:55:05;;;;;;;;;;;;;;;-142.75;100.00;76897.06;5031784;28;19924;-69
2022/09/23 07:57:30;;;;;;;;;;;;;;;-142.75;100.00;76861.63;5033832;28;19935;-69
2022/09/23 07:59:55;;;;;;;;;;;;;;;-142.75;100.00;76849.81;5032003;28;20020;-69
2022/09/23 08:02:21;;;;;;;;;;;;;;;-142.75;100.00;76845.88;5031167;28;19925;-69
2022/09/23 08:04:47;;;;;;;;;;;;;;;-142.75;100.00;76857.69;5031705;28;19917;-69
2022/09/23 08:07:13;;;;;;;;;;;;;;;-142.75;100.00;76845.88;5031646;28;19983;-69
2022/09/23 08:09:40;;;;;;;;;;;;;;;-142.75;100.00;76838.00;5034243;28;20334;-69
2022/09/23 08:12:09;;;;;;;;;;;;;;;-142.75;100.00;76857.69;5034300;28;19936;-70
2022/09/23 08:14:34;;;;;;;;;;;;;;;-142.75;100.00;76853.75;5032583;28;19995;-69
2022/09/23 08:16:59;;;;;;;;;;;;;;;-142.75;100.00;76849.81;5032612;28;20359;-69
2022/09/23 08:19:26;;;;;;;;;;;;;;;-142.75;100.00;76847.84;5033625;28;20305;-69
2022/09/23 08:21:53;;;;;;;;;;;;;;;-142.75;100.00;76853.75;5033946;28;20077;-70
2022/09/23 08:24:20;;;;;;;;;;;;;;;-142.75;100.00;76847.84;5034105;28;19924;-69
2022/09/23 08:26:46;;;;;;;;;;;;;;;-142.75;100.00;76834.06;5033888;28;19917;-69
2022/09/23 08:29:14;;;;;;;;;;;;;;;-142.75;100.00;76830.13;5033749;28;20427;-69
2022/09/23 08:31:40;;;;;;;;;;;;;;;-142.75;100.00;76818.31;5029899;28;19970;-69
2022/09/23 08:34:06;;;;;;;;;;;;;;;-142.75;100.00;76828.16;5032833;28;19921;-69
2022/09/23 08:36:31;;;;;;;;;;;;;;;-142.75;100.00;76816.34;5027918;28;19917;-69
2022/09/23 08:38:57;;;;;;;;;;;;;;;-142.75;100.00;76798.66;5030785;28;19913;-70
2022/09/23 08:41:36;;;;;;;;;;;;;;;-142.75;100.00;76794.69;5033558;28;19914;-70
2022/09/23 08:44:19;;;;;;;;;;;;;;;-142.75;100.00;76790.78;5027715;28;20292;-70
2022/09/23 08:46:48;;;;;;;;;;;;;;;-142.75;100.00;76775.03;5026382;28;19913;-70
2022/09/23 08:49:18;;;;;;;;;;;;;;;-142.75;100.00;76777.00;5032004;28;20291;-70
2022/09/23 08:51:45;;;;;;;;;;;;;;;-142.75;100.00;76780.94;5023583;28;20346;-70
2022/09/23 08:54:11;;;;;;;;;;;;;;;-142.75;100.00;76778.97;5018913;28;19922;-69
2022/09/23 08:56:37;;;;;;;;;;;;;;;-142.75;100.00;76761.25;5026819;28;19921;-69
2022/09/23 08:59:13;;;;;;;;;;;;;;;-142.75;100.00;76757.31;5030971;28;19913;-69
2022/09/23 09:01:48;;;;;;;;;;;;;;;-142.75;100.00;76747.47;5028747;28;19913;-69
2022/09/23 09:04:15;;;;;;;;;;;;;;;-142.75;100.00;76747.47;5030941;28;19995;-72
2022/09/23 09:06:43;;;;;;;;;;;;;;;-142.75;100.00;76743.53;5030618;28;20446;-69
2022/09/23 09:09:31;;;;;;;;;;;;;;;-142.75;100.00;76751.41;5033176;28;19948;-70
2022/09/23 09:12:13;;;;;;;;;;;;;;;-142.75;100.00;76755.34;5028582;28;19990;-70
2022/09/23 09:14:53;;;;;;;;;;;;;;;-142.75;100.00;76739.59;5032910;28;19913;-70
2022/09/23 09:17:26;;;;;;;;;;;;;;;-142.75;100.00;76747.47;5032913;28;20401;-69
2022/09/23 09:20:18;;;;;;;;;;;;;;;-142.75;100.00;76723.84;5031668;28;20059;-70
2022/09/23 09:22:49;;;;;;;;;;;;;;;-142.75;100.00;76717.94;5016756;28;20004;-69
2022/09/23 09:25:17;;;;;;;;;;;;;;;-142.75;100.00;76719.91;5032851;28;19920;-70
2022/09/23 09:27:42;;;;;;;;;;;;;;;-142.75;100.00;76714.00;5032190;28;19918;-69
2022/09/23 09:30:11;;;;;;;;;;;;;;;-142.75;100.00;76717.94;5032345;28;19936;-69
2022/09/23 09:32:46;;;;;;;;;;;;;;;-142.75;100.00;76710.06;5032129;28;20607;-70
2022/09/23 09:35:33;;;;;;;;;;;;;;;-142.75;100.00;76714.00;5032151;28;20401;-69
2022/09/23 09:37:58;;;;;;;;;;;;;;;-142.75;100.00;76704.16;5008806;28;20035;-69
2022/09/23 09:40:24;;;;;;;;;;;;;;;-142.75;100.00;76686.44;5032784;28;20007;-70
2022/09/23 09:42:49;;;;;;;;;;;;;;;-142.75;100.00;76684.47;5032447;28;19917;-70
2022/09/23 09:45:25;;;;;;;;;;;;;;;-142.75;100.00;76684.47;5033094;28;20000;-68
2022/09/23 09:47:55;;;;;;;;;;;;;;;-142.75;100.00;76688.41;5031823;28;19913;-68
2022/09/23 09:50:41;;;;;;;;;;;;;;;-142.75;100.00;76696.28;5031792;28;20319;-68
2022/09/23 09:53:19;;;;;;;;;;;;;;;-142.75;100.00;76692.34;5031508;28;19979;-68
2022/09/23 09:55:47;;;;;;;;;;;;;;;-142.75;100.00;76694.31;5031902;28;19980;-69
2022/09/23 09:58:15;;;;;;;;;;;;;;;-142.75;100.00;76686.44;5029413;28;19917;-68
2022/09/23 10:00:42;;;;;;;;;;;;;;;-142.75;100.00;76692.34;5031973;28;19913;-69
2022/09/23 10:03:13;;;;;;;;;;;;;;;-142.75;100.00;76676.59;5031926;28;19953;-68
2022/09/23 10:05:44;;;;;;;;;;;;;;;-142.75;100.00;76672.66;5031199;28;19913;-69
2022/09/23 10:08:28;;;;;;;;;;;;;;;-142.75;100.00;76680.53;5029154;28;19924;-68
2022/09/23 10:11:15;;;;;;;;;;;;;;;-142.75;100.00;76668.72;5031623;28;20011;-69
2022/09/23 10:13:41;;;;;;;;;;;;;;;-142.75;100.00;76672.66;5032344;28;20375;-68
2022/09/23 10:16:07;;;;;;;;;;;;;;;-142.75;100.00;76668.72;5031852;28;19967;-65
2022/09/23 10:18:37;;;;;;;;;;;;;;;-142.75;100.00;76658.88;5031356;28;19914;-69
2022/09/23 10:21:12;;;;;;;;;;;;;;;-142.75;100.00;76668.72;5031872;28;19917;-68
2022/09/23 10:23:41;;;;;;;;;;;;;;;-142.75;100.00;76664.78;5032221;28;19924;-69
2022/09/23 10:26:07;;;;;;;;;;;;;;;-142.75;100.00;76664.78;5030996;28;19913;-69
2022/09/23 10:28:40;;;;;;;;;;;;;;;-142.75;100.00;76670.69;5034150;28;19920;-69
2022/09/23 10:31:11;;;;;;;;;;;;;;;-142.75;100.00;76649.03;5032096;28;19913;-68
2022/09/23 10:33:40;;;;;;;;;;;;;;;-142.75;100.00;76631.31;5032003;28;19943;-67
2022/09/23 10:36:08;;;;;;;;;;;;;;;-142.75;100.00;76623.44;5031971;28;19921;-68
2022/09/23 10:38:34;;;;;;;;;;;;;;;-142.75;100.00;76617.53;5031764;28;19913;-68
2022/09/23 10:46:36;;;;;;;;;;;;;;;-142.75;100.00;76593.91;5031900;28;19924;-68
2022/09/23 10:47:00;;;;;;;;;;;;;;;-142.75;100.00;76586.03;5031509;28;19914;-69
2022/09/23 10:49:37;;;;;;;;;;;;;;;-142.75;100.00;76586.03;5031989;28;19917;-69
2022/09/23 10:52:08;;;;;;;;;;;;;;;-142.75;100.00;76578.16;5031767;28;19913;-69
2022/09/23 10:54:36;;;;;;;;;;;;;;;-142.75;100.00;76578.16;5030107;28;19913;-70
2022/09/23 11:00:09;;;;;;;;;;;;;;;-142.75;100.00;76540.75;5032837;28;19967;-68
2022/09/23 11:02:41;;;;;;;;;;;;;;;-142.75;100.00;76527.00;5035521;28;20398;-69
2022/09/23 11:05:10;;;;;;;;;;;;;;;-142.75;100.00;76513.22;5035681;28;19917;-69
2022/09/23 11:07:48;;;;;;;;;;;;;;;-142.75;100.00;76517.16;5035375;28;19913;-68
2022/09/23 11:10:22;;;;;;;;;;;;;;;-142.75;100.00;76519.13;5034769;28;19953;-70
2022/09/23 11:13:00;;;;;;;;;;;;;;;-142.75;100.00;76507.31;5033810;28;19913;-70
2022/09/23 11:15:25;;;;;;;;;;;;;;;-142.75;100.00;76540.75;5034120;28;19917;-69
2022/09/23 11:17:50;;;;;;;;;;;;;;;-142.75;100.00;76540.75;5035174;28;20012;-69
2022/09/23 11:20:16;;;;;;;;;;;;;;;-142.75;100.00;76540.75;5035453;28;20004;-69
2022/09/23 11:23:02;;;;;;;;;;;;;;;-142.75;100.00;76542.72;5035186;28;19917;-69
2022/09/23 11:25:41;;;;;;;;;;;;;;;-142.75;100.00;76536.84;5035158;28;19920;-68
2022/09/23 11:28:06;;;;;;;;;;;;;;;-142.75;100.00;76536.84;5035030;28;19917;-68
2022/09/23 11:30:43;;;;;;;;;;;;;;;-142.75;100.00;76532.88;5035350;28;19920;-68
2022/09/23 11:33:14;;;;;;;;;;;;;;;-142.75;100.00;76515.19;5035215;28;19913;-68
2022/09/23 11:35:44;;;;;;;;;;;;;;;-142.75;100.00;76489.59;5035355;28;19971;-68
2022/09/23 11:38:11;;;;;;;;;;;;;;;-142.75;100.00;76487.63;5035105;28;19916;-69
2022/09/23 11:40:39;;;;;;;;;;;;;;;-142.75;100.00;76485.66;5035435;28;19926;-68
2022/09/23 11:43:18;;;;;;;;;;;;;;;-142.75;100.00;76471.88;5034253;28;19968;-69
2022/09/23 11:45:50;;;;;;;;;;;;;;;-142.75;100.00;76452.19;5034295;28;19952;-69
2022/09/23 11:48:25;;;;;;;;;;;;;;;-142.75;100.00;76444.31;5032026;28;20003;-68
2022/09/23 11:50:56;;;;;;;;;;;;;;;-142.75;100.00;76436.44;5033202;28;20000;-69
2022/09/23 11:53:21;;;;;;;;;;;;;;;-142.75;100.00;76416.75;5033951;28;19963;-69
2022/09/23 11:56:07;;;;;;;;;;;;;;;-142.75;100.00;76408.88;5034180;28;20303;-70
2022/09/23 11:58:52;;;;;;;;;;;;;;;-142.75;100.00;76404.94;5033304;28;19913;-69
2022/09/23 12:01:34;;;;;;;;;;;;;;;-142.75;100.00;76406.91;5032898;28;20394;-68
2022/09/23 12:04:12;;;;;;;;;;;;;;;-142.75;100.00;76420.69;5034555;28;19944;-69
2022/09/23 12:06:40;;;;;;;;;;;;;;;-142.75;100.00;76426.59;5033702;28;19914;-69
2022/09/23 12:09:21;;;;;;;;;;;;;;;-142.75;100.00;76402.97;5031343;28;19943;-70
2022/09/23 12:11:58;;;;;;;;;;;;;;;-142.75;100.00;76383.28;5029600;28;20008;-69
2022/09/23 12:14:29;;;;;;;;;;;;;;;-142.75;100.00;76345.91;5030542;28;19917;-69
2022/09/23 12:17:04;;;;;;;;;;;;;;;-142.75;100.00;76326.22;5033556;28;19921;-68
2022/09/23 12:19:58;;;;;;;;;;;;;;;-142.75;100.00;76255.34;5022421;28;20031;-68
2022/09/23 12:22:41;;;;;;;;;;;;;;;-142.75;100.00;76265.19;5044071;22;21469;-67
2022/09/23 12:25:21;;;;;;;;;;;;;;;-142.75;100.00;76269.13;5054119;28;20017;-67
2022/09/23 12:27:51;;;;;;;;;;;;;;;-142.75;100.00;76282.91;5072349;28;19916;-67
2022/09/23 12:30:25;;;;;;;;;;;;;;;-142.75;100.00;76267.16;5054617;28;20620;-66
2022/09/23 12:32:51;;;;;;;;;;;;;;;-142.75;100.00;76247.47;5049634;28;20654;-67
2022/09/23 12:35:21;;;;;;;;;;;;;;;-142.75;100.00;76223.84;5032478;28;20026;-67
2022/09/23 12:37:47;;;;;;;;;;;;;;;-142.75;100.00;76204.16;5033226;28;20051;-68